Time;durP1;ratioP1;P1;durP2;ratioP2;P2;SDS_P1;SDS_P2;PMS_P1;PMS_P2;Temp;Humidity;BMP_temperature;BMP_pressure;BME280_temperature;BME280_humidity;BME280_pressure;Samples;Min_cycle;Max_cycle;Signal;HPM_P1;HPM_P2
2021/11/18 00:01:03;;;;;;;0.60;0.60;;;;;;;8.08;69.63;100707.89;101032;1319;140772;-76
2021/11/18 00:03:32;;;;;;;0.50;0.50;;;;;;;8.10;69.50;100706.98;101361;1319;117057;-76
2021/11/18 00:06:01;;;;;;;0.60;0.60;;;;;;;8.02;69.63;100708.48;101173;1318;139331;-74
2021/11/18 00:08:29;;;;;;;0.60;0.60;;;;;;;8.01;69.73;100701.08;101172;1318;109313;-76
2021/11/18 00:10:59;;;;;;;0.60;0.60;;;;;;;7.99;69.77;100693.86;101138;1318;138936;-77
2021/11/18 00:13:30;;;;;;;0.50;0.50;;;;;;;8.06;69.81;100693.26;101233;1315;96137;-76
2021/11/18 00:15:58;;;;;;;0.60;0.60;;;;;;;8.10;69.46;100699.55;101065;1319;108892;-76
2021/11/18 00:18:28;;;;;;;0.60;0.60;;;;;;;8.07;69.60;100706.68;100969;1319;138340;-77
2021/11/18 00:21:00;;;;;;;0.50;0.50;;;;;;;8.06;69.41;100709.70;101256;1317;95634;-75
2021/11/18 00:23:31;;;;;;;0.50;0.50;;;;;;;8.02;69.59;100715.21;101099;1325;139485;-76
2021/11/18 00:25:59;;;;;;;0.60;0.60;;;;;;;8.00;69.50;100707.81;101202;1317;107887;-76
2021/11/18 00:28:28;;;;;;;0.60;0.60;;;;;;;8.00;69.72;100710.83;101121;1321;108803;-76
2021/11/18 00:30:56;;;;;;;0.60;0.60;;;;;;;8.01;69.88;100710.98;101139;1323;139999;-75
2021/11/18 00:33:25;;;;;;;0.60;0.60;;;;;;;7.97;69.77;100709.09;101192;1320;95181;-75
2021/11/18 00:35:56;;;;;;;0.50;0.50;;;;;;;8.01;69.60;100704.79;101123;1319;139507;-76
2021/11/18 00:38:24;;;;;;;0.60;0.60;;;;;;;7.98;69.65;100706.23;101211;1319;108895;-75
2021/11/18 00:40:54;;;;;;;0.60;0.60;;;;;;;7.94;69.75;100703.29;101135;1319;139357;-76
2021/11/18 00:43:22;;;;;;;0.60;0.60;;;;;;;7.93;70.05;100705.23;101078;1320;96479;-76
2021/11/18 00:45:50;;;;;;;0.50;0.50;;;;;;;7.95;70.00;100706.11;101222;1319;108772;-75
2021/11/18 00:48:19;;;;;;;0.60;0.60;;;;;;;8.01;69.69;100707.27;100946;1319;140094;-76
2021/11/18 00:51:23;;;;;;;0.60;0.60;;;;;;;8.00;69.58;100705.87;101110;1321;95361;-77
2021/11/18 00:53:55;;;;;;;0.60;0.60;;;;;;;7.91;69.83;100705.44;101158;1319;137903;-75
2021/11/18 00:56:24;;;;;;;0.60;0.60;;;;;;;7.91;70.01;100710.21;101089;1323;107992;-76
2021/11/18 00:58:54;;;;;;;0.70;0.70;;;;;;;7.95;69.91;100710.16;101157;1324;108846;-76
2021/11/18 01:01:28;;;;;;;0.50;0.50;;;;;;;7.95;69.89;100710.34;101068;1318;139478;-76
2021/11/18 01:03:57;;;;;;;0.60;0.60;;;;;;;7.97;70.11;100714.38;101125;1319;95370;-76
2021/11/18 01:06:28;;;;;;;0.60;0.60;;;;;;;7.99;69.86;100714.89;100922;1316;139565;-76
2021/11/18 01:08:56;;;;;;;0.60;0.60;;;;;;;8.04;69.94;100713.60;101201;1319;110234;-76
2021/11/18 01:11:27;;;;;;;0.50;0.50;;;;;;;8.07;69.88;100707.57;101123;1318;138862;-76
2021/11/18 01:13:58;;;;;;;0.50;0.50;;;;;;;8.00;69.69;100701.80;101097;1319;96650;-76
2021/11/18 01:16:29;;;;;;;0.60;0.60;;;;;;;7.93;69.93;100702.94;101297;1318;108946;-76
2021/11/18 01:18:57;;;;;;;0.60;0.60;;;;;;;7.97;70.14;100701.48;100979;1319;138619;-76
2021/11/18 01:21:25;;;;;;;0.60;0.60;;;;;;;8.00;69.90;100711.34;101249;1320;95307;-75
2021/11/18 01:23:54;;;;;;;0.50;0.50;;;;;;;7.99;69.69;100715.08;101315;1318;140018;-76
2021/11/18 01:26:27;;;;;;;0.60;0.60;;;;;;;7.97;70.01;100710.66;101347;1318;107718;-76
2021/11/18 01:28:55;;;;;;;0.60;0.60;;;;;;;7.99;69.95;100716.31;101097;1320;108885;-74
2021/11/18 01:31:23;;;;;;;0.50;0.50;;;;;;;7.98;70.10;100711.90;101183;1319;138336;-76
2021/11/18 01:33:56;;;;;;;0.50;0.50;;;;;;;8.00;69.76;100710.11;101187;1319;95801;-76
2021/11/18 01:36:24;;;;;;;0.50;0.50;;;;;;;7.97;69.96;100704.13;101370;1316;137502;-77
2021/11/18 01:39:00;;;;;;;0.60;0.60;;;;;;;7.92;70.15;100705.42;101207;1317;108834;-76
2021/11/18 01:41:30;;;;;;;0.50;0.50;;;;;;;7.88;70.36;100713.59;101089;1319;140157;-75
2021/11/18 01:44:04;;;;;;;0.60;0.60;;;;;;;7.86;70.38;100712.02;101051;1320;96180;-75
2021/11/18 01:46:34;;;;;;;0.50;0.50;;;;;;;7.83;70.49;100716.65;101242;1322;108416;-76
2021/11/18 01:49:11;;;;;;;0.50;0.50;;;;;;;7.84;70.69;100722.13;100971;1321;141649;-76
2021/11/18 01:51:44;;;;;;;0.60;0.60;;;;;;;7.79;71.13;100725.70;101092;1319;95398;-76
2021/11/18 01:54:15;;;;;;;0.50;0.50;;;;;;;7.83;71.26;100723.20;101239;1318;140913;-76
2021/11/18 01:56:43;;;;;;;0.60;0.60;;;;;;;7.88;70.95;100715.71;101214;1315;108346;-75
2021/11/18 01:59:22;;;;;;;0.60;0.60;;;;;;;7.91;71.20;100715.88;100990;1320;138964;-76
2021/11/18 02:02:03;;;;;;;0.50;0.50;;;;;;;7.96;71.28;100721.82;101113;1320;95288;-77
2021/11/18 02:05:48;;;;;;;0.50;0.50;;;;;;;7.93;71.47;100717.42;101127;1319;138315;-76
2021/11/18 02:08:16;;;;;;;0.60;0.60;;;;;;;7.93;71.56;100721.85;100979;1318;109141;-76
2021/11/18 02:10:56;;;;;;;0.50;0.50;;;;;;;7.95;71.48;100732.63;101178;1318;109793;-77
2021/11/18 02:13:24;;;;;;;0.50;0.50;;;;;;;7.95;71.64;100735.46;100955;1321;138847;-76
2021/11/18 02:15:58;;;;;;;0.50;0.50;;;;;;;7.85;71.73;100731.84;101212;1320;95255;-76
2021/11/18 02:18:32;;;;;;;0.60;0.60;;;;;;;7.86;72.19;100740.30;100921;1322;138353;-76
2021/11/18 02:21:05;;;;;;;0.60;0.60;;;;;;;7.95;71.76;100743.76;100855;1323;108705;-76
2021/11/18 02:23:35;;;;;;;0.50;0.50;;;;;;;7.89;71.85;100744.16;101102;1323;140297;-76
2021/11/18 02:26:04;;;;;;;0.50;0.50;;;;;;;7.77;72.01;100742.70;101234;1318;96190;-76
2021/11/18 02:28:35;;;;;;;0.50;0.50;;;;;;;7.78;72.26;100740.37;101168;1319;108966;-76
2021/11/18 02:31:32;;;;;;;0.50;0.50;;;;;;;7.84;72.38;100745.27;100815;1318;139130;-76
2021/11/18 02:34:02;;;;;;;0.50;0.50;;;;;;;7.87;72.30;100742.07;101040;1318;95768;-76
2021/11/18 02:36:31;;;;;;;0.50;0.50;;;;;;;7.91;72.23;100741.67;100947;1321;138861;-76
2021/11/18 02:38:59;;;;;;;0.60;0.60;;;;;;;7.93;72.15;100742.72;101220;1318;109610;-76
2021/11/18 02:41:27;;;;;;;0.60;0.60;;;;;;;7.97;72.31;100739.13;101177;1318;138549;-76
2021/11/18 02:44:10;;;;;;;0.60;0.60;;;;;;;7.97;72.09;100738.95;101445;1320;95733;-77
2021/11/18 02:46:41;;;;;;;0.50;0.50;;;;;;;7.92;72.26;100742.02;101032;1320;96405;-78
2021/11/18 02:49:26;;;;;;;0.50;0.50;;;;;;;7.93;72.27;100737.06;101018;1318;138030;-75
2021/11/18 02:51:54;;;;;;;0.50;0.50;;;;;;;7.98;72.21;100744.27;101093;1321;109739;-76
2021/11/18 02:54:23;;;;;;;0.50;0.50;;;;;;;8.00;72.20;100745.11;101031;1319;139076;-77
2021/11/18 02:56:52;;;;;;;0.50;0.50;;;;;;;8.06;72.18;100749.84;100836;1322;95462;-77
2021/11/18 02:59:21;;;;;;;0.50;0.50;;;;;;;8.06;71.86;100751.42;101313;1318;138259;-76
2021/11/18 03:01:51;;;;;;;0.50;0.50;;;;;;;8.04;72.12;100754.46;101145;1321;109979;-77
2021/11/18 03:04:20;;;;;;;0.50;0.50;;;;;;;8.02;71.93;100752.70;101187;1317;96169;-76
2021/11/18 03:06:47;;;;;;;0.50;0.50;;;;;;;8.02;72.17;100749.52;100998;1320;138344;-76
2021/11/18 03:09:15;;;;;;;0.50;0.40;;;;;;;8.07;71.92;100751.41;101229;1318;109017;-76
2021/11/18 03:11:43;;;;;;;0.60;0.60;;;;;;;8.02;71.77;100743.70;101121;1318;138955;-76
2021/11/18 03:14:11;;;;;;;0.50;0.50;;;;;;;7.91;72.13;100731.06;101052;1318;96831;-75
2021/11/18 03:16:51;;;;;;;0.60;0.60;;;;;;;7.89;72.33;100739.40;101256;1322;95559;-76
2021/11/18 03:19:21;;;;;;;0.50;0.50;;;;;;;7.85;72.39;100741.73;100971;1321;139960;-74
2021/11/18 03:21:50;;;;;;;0.50;0.50;;;;;;;7.87;72.42;100745.61;101066;1321;110010;-76
2021/11/18 03:24:18;;;;;;;0.60;0.60;;;;;;;7.89;72.54;100742.58;100946;1320;138339;-75
2021/11/18 03:26:47;;;;;;;0.60;0.60;;;;;;;7.91;72.39;100749.28;101306;1318;95262;-77
2021/11/18 03:29:20;;;;;;;0.70;0.70;;;;;;;7.92;72.43;100756.70;101336;1320;139046;-75
2021/11/18 03:31:49;;;;;;;0.50;0.50;;;;;;;7.95;72.25;100760.55;101056;1321;108200;-76
2021/11/18 03:34:24;;;;;;;0.50;0.50;;;;;;;7.92;72.38;100759.00;101006;1321;96316;-78
2021/11/18 03:36:51;;;;;;;0.50;0.50;;;;;;;7.95;72.27;100757.38;100996;1321;138559;-76
2021/11/18 03:39:20;;;;;;;0.50;0.50;;;;;;;7.94;72.09;100759.15;101035;1325;108895;-77
2021/11/18 03:41:52;;;;;;;0.50;0.50;;;;;;;7.92;72.07;100765.17;101018;1321;139476;-75
2021/11/18 03:44:23;;;;;;;0.40;0.40;;;;;;;7.88;72.28;100763.27;101261;1318;95471;-77
2021/11/18 03:46:57;;;;;;;0.50;0.50;;;;;;;7.95;72.25;100766.22;101083;1320;95360;-75
2021/11/18 03:49:28;;;;;;;0.50;0.50;;;;;;;7.99;71.92;100763.70;101126;1318;137789;-76
2021/11/18 03:51:59;;;;;;;0.50;0.50;;;;;;;7.98;72.28;100757.16;101158;1318;109901;-76
2021/11/18 03:54:29;;;;;;;0.50;0.50;;;;;;;7.99;72.10;100756.27;101063;1320;139528;-75
2021/11/18 03:57:00;;;;;;;0.50;0.50;;;;;;;7.98;72.12;100759.30;101245;1318;98420;-77
2021/11/18 03:59:31;;;;;;;0.50;0.50;;;;;;;8.00;72.08;100768.11;101001;1318;137036;-78
2021/11/18 04:02:04;;;;;;;0.60;0.60;;;;;;;7.98;72.06;100769.54;100893;1321;108130;-77
2021/11/18 04:04:48;;;;;;;0.50;0.50;;;;;;;8.00;71.85;100776.41;101043;1319;95413;-77
2021/11/18 04:07:17;;;;;;;0.50;0.50;;;;;;;8.09;71.82;100777.23;101093;1318;138597;-77
2021/11/18 04:09:47;;;;;;;0.50;0.50;;;;;;;8.14;71.64;100774.52;101048;1318;109944;-77
2021/11/18 04:12:16;;;;;;;0.50;0.50;;;;;;;8.09;71.34;100778.10;100940;1321;139953;-76
2021/11/18 04:14:45;;;;;;;0.50;0.50;;;;;;;8.07;71.35;100777.59;101255;1318;95738;-75
2021/11/18 04:17:15;;;;;;;0.50;0.50;;;;;;;8.07;71.64;100780.60;101016;1319;140473;-76
2021/11/18 04:19:43;;;;;;;0.50;0.50;;;;;;;8.10;71.48;100779.68;101098;1321;107886;-76
2021/11/18 04:22:12;;;;;;;0.50;0.50;;;;;;;8.09;71.52;100781.98;100861;1321;110131;-76
2021/11/18 04:24:43;;;;;;;0.50;0.50;;;;;;;8.11;71.50;100777.73;100877;1319;138401;-75
2021/11/18 04:27:11;;;;;;;0.60;0.60;;;;;;;8.04;71.36;100779.91;101102;1319;95587;-77
2021/11/18 04:29:40;;;;;;;0.40;0.40;;;;;;;7.96;71.76;100785.30;101068;1319;139779;-76
2021/11/18 04:32:13;;;;;;;0.50;0.50;;;;;;;8.03;71.74;100780.29;101200;1318;108873;-76
2021/11/18 04:34:42;;;;;;;0.50;0.50;;;;;;;8.00;71.76;100782.79;101094;1317;95318;-76
2021/11/18 04:37:11;;;;;;;0.50;0.50;;;;;;;7.98;71.77;100787.77;100856;1318;138517;-76
2021/11/18 04:39:39;;;;;;;0.50;0.50;;;;;;;8.01;71.77;100783.66;101167;1318;108875;-76
2021/11/18 04:42:08;;;;;;;0.50;0.50;;;;;;;8.07;71.61;100785.17;101074;1318;139737;-76
2021/11/18 04:44:39;;;;;;;0.50;0.50;;;;;;;8.12;71.51;100786.38;100971;1322;95875;-76
2021/11/18 04:47:10;;;;;;;0.50;0.50;;;;;;;8.08;71.47;100784.13;100856;1319;138886;-76
2021/11/18 04:49:40;;;;;;;0.60;0.60;;;;;;;8.05;71.44;100782.57;101193;1318;108392;-77
2021/11/18 04:52:12;;;;;;;0.50;0.50;;;;;;;8.01;71.50;100788.08;101186;1318;109877;-76
2021/11/18 04:54:40;;;;;;;0.50;0.50;;;;;;;7.94;71.66;100788.16;101122;1318;139148;-76
2021/11/18 04:57:09;;;;;;;0.50;0.50;;;;;;;7.99;71.57;100789.51;101176;1319;95705;-76
2021/11/18 04:59:42;;;;;;;0.50;0.50;;;;;;;8.04;71.52;100792.83;100875;1321;139691;-76
2021/11/18 05:02:10;;;;;;;0.50;0.50;;;;;;;8.03;71.54;100794.61;101036;1317;108836;-76
2021/11/18 05:04:38;;;;;;;0.60;0.60;;;;;;;8.02;71.56;100798.85;101149;1321;97127;-77
2021/11/18 05:07:05;;;;;;;0.50;0.50;;;;;;;8.03;71.28;100788.77;100846;1321;140016;-76
2021/11/18 05:09:35;;;;;;;0.50;0.50;;;;;;;8.06;71.62;100788.57;101139;1320;108836;-78
2021/11/18 05:12:03;;;;;;;0.60;0.60;;;;;;;8.10;71.19;100788.00;101023;1318;137728;-75
2021/11/18 05:14:31;;;;;;;0.60;0.60;;;;;;;8.09;71.45;100792.44;100967;1325;95360;-76
2021/11/18 05:17:00;;;;;;;0.50;0.50;;;;;;;8.12;71.27;100791.87;100993;1320;96219;-75
2021/11/18 05:19:28;;;;;;;0.50;0.50;;;;;;;8.17;71.08;100796.06;100953;1320;140908;-76
2021/11/18 05:21:55;;;;;;;0.50;0.50;;;;;;;8.14;71.13;100795.91;101087;1320;109963;-75
2021/11/18 05:24:24;;;;;;;0.50;0.50;;;;;;;8.10;71.20;100792.60;101099;1318;139492;-77
2021/11/18 05:26:56;;;;;;;0.50;0.50;;;;;;;8.12;71.42;100795.23;100905;1324;95602;-75
2021/11/18 05:29:24;;;;;;;0.50;0.50;;;;;;;8.14;71.31;100797.52;101061;1314;138814;-76
2021/11/18 05:31:52;;;;;;;0.50;0.50;;;;;;;8.14;71.29;100794.33;100859;1321;108339;-78
2021/11/18 05:34:53;;;;;;;0.50;0.50;;;;;;;8.14;71.71;100799.27;100724;1318;96439;-76
2021/11/18 05:37:22;;;;;;;0.50;0.50;;;;;;;8.20;71.59;100803.64;101000;1318;140301;-76
2021/11/18 05:39:50;;;;;;;0.50;0.50;;;;;;;8.20;71.43;100805.23;101155;1318;108847;-77
2021/11/18 05:42:18;;;;;;;0.50;0.40;;;;;;;8.21;71.55;100804.52;100953;1321;140106;-77
2021/11/18 05:44:49;;;;;;;0.50;0.50;;;;;;;8.20;71.79;100807.53;101168;1321;96428;-75
2021/11/18 05:47:18;;;;;;;0.50;0.50;;;;;;;8.18;72.07;100812.33;101034;1322;138078;-76
2021/11/18 05:49:47;;;;;;;0.50;0.50;;;;;;;8.15;71.80;100815.54;100975;1321;108083;-76
2021/11/18 05:52:18;;;;;;;0.50;0.50;;;;;;;8.17;72.06;100814.99;100821;1323;108908;-76
2021/11/18 05:54:46;;;;;;;0.50;0.50;;;;;;;8.19;72.22;100810.54;101018;1318;139523;-76
2021/11/18 05:57:14;;;;;;;0.50;0.50;;;;;;;8.16;72.03;100813.92;100971;1321;96240;-76
2021/11/18 05:59:43;;;;;;;0.50;0.50;;;;;;;8.14;71.94;100816.60;100825;1320;139901;-76
2021/11/18 06:02:11;;;;;;;0.50;0.50;;;;;;;8.12;72.32;100819.28;101007;1320;108754;-75
2021/11/18 06:04:39;;;;;;;0.50;0.50;;;;;;;8.16;72.09;100817.11;100978;1320;95388;-77
2021/11/18 06:07:08;;;;;;;0.50;0.50;;;;;;;8.19;72.23;100813.20;100850;1321;139160;-77
2021/11/18 06:09:38;;;;;;;0.50;0.50;;;;;;;8.22;72.31;100816.02;101270;1318;105542;-75
2021/11/18 06:12:09;;;;;;;0.50;0.50;;;;;;;8.27;72.20;100813.64;100962;1320;138663;-77
2021/11/18 06:14:37;;;;;;;0.50;0.50;;;;;;;8.34;71.94;100813.93;101202;1324;95583;-76
2021/11/18 06:17:06;;;;;;;0.60;0.60;;;;;;;8.33;71.40;100814.65;101560;1318;138578;-77
2021/11/18 06:19:34;;;;;;;0.50;0.50;;;;;;;8.35;71.60;100818.70;101274;1320;107867;-76
2021/11/18 06:22:03;;;;;;;0.50;0.50;;;;;;;8.40;71.87;100823.42;101009;1321;107950;-76
2021/11/18 06:24:38;;;;;;;0.50;0.50;;;;;;;8.44;71.54;100820.73;101131;1319;139521;-77
2021/11/18 06:27:05;;;;;;;0.50;0.40;;;;;;;8.45;71.47;100822.52;101289;1318;95492;-76
2021/11/18 06:29:34;;;;;;;0.50;0.50;;;;;;;8.50;71.40;100830.79;100869;1325;137811;-77
2021/11/18 06:32:05;;;;;;;0.50;0.50;;;;;;;8.49;71.20;100832.57;101307;1318;108898;-76
2021/11/18 06:34:35;;;;;;;0.60;0.60;;;;;;;8.42;71.33;100831.73;101207;1324;95258;-77
2021/11/18 06:37:03;;;;;;;0.50;0.50;;;;;;;8.35;71.45;100829.14;101219;1321;139019;-76
2021/11/18 06:39:35;;;;;;;0.50;0.50;;;;;;;8.33;71.47;100831.27;100928;1323;109344;-75
2021/11/18 06:42:06;;;;;;;0.50;0.50;;;;;;;8.32;71.56;100836.08;100890;1318;138332;-76
2021/11/18 06:44:35;;;;;;;0.50;0.50;;;;;;;8.35;71.70;100834.80;101497;1318;95499;-76
2021/11/18 06:47:04;;;;;;;0.50;0.50;;;;;;;8.35;71.35;100837.81;101506;1322;95349;-75
2021/11/18 06:49:32;;;;;;;0.50;0.50;;;;;;;8.29;71.60;100846.55;101981;1318;138816;-76
2021/11/18 06:52:02;;;;;;;0.50;0.50;;;;;;;8.27;71.88;100851.69;100955;1321;108730;-76
2021/11/18 06:54:31;;;;;;;0.50;0.50;;;;;;;8.26;72.01;100853.98;100736;1318;138544;-77
2021/11/18 06:56:59;;;;;;;0.50;0.50;;;;;;;8.28;71.77;100855.56;100977;1321;95354;-76
2021/11/18 06:59:27;;;;;;;0.50;0.50;;;;;;;8.32;72.01;100855.17;100998;1322;138279;-75
2021/11/18 07:01:56;;;;;;;0.50;0.50;;;;;;;8.25;71.79;100861.08;101090;1318;108995;-76
2021/11/18 07:04:26;;;;;;;0.50;0.50;;;;;;;8.27;72.11;100861.23;101245;1318;96489;-75
2021/11/18 07:06:54;;;;;;;0.50;0.50;;;;;;;8.31;71.93;100859.96;101032;1318;139497;-76
2021/11/18 07:09:22;;;;;;;0.50;0.50;;;;;;;8.34;72.01;100860.45;101173;1317;107952;-77
2021/11/18 07:12:20;;;;;;;0.50;0.50;;;;;;;8.32;72.04;100858.00;100676;1321;138155;-76
2021/11/18 07:14:49;;;;;;;0.50;0.50;;;;;;;8.29;71.85;100853.45;100878;1319;95991;-76
2021/11/18 07:17:17;;;;;;;0.50;0.50;;;;;;;8.27;71.99;100851.52;100873;1321;138417;-76
2021/11/18 07:19:46;;;;;;;0.50;0.50;;;;;;;8.27;72.09;100853.63;101268;1319;108997;-75
2021/11/18 07:22:15;;;;;;;0.50;0.50;;;;;;;8.30;72.05;100858.21;101508;1321;109860;-75
2021/11/18 07:25:13;;;;;;;0.50;0.50;;;;;;;8.29;71.77;100856.61;101077;1318;140217;-76
2021/11/18 07:27:42;;;;;;;0.50;0.50;;;;;;;8.28;71.96;100854.51;101052;1321;95577;-76
2021/11/18 07:30:11;;;;;;;0.50;0.50;;;;;;;8.33;72.08;100854.64;101059;1315;137952;-77
2021/11/18 07:32:39;;;;;;;0.50;0.50;;;;;;;8.36;71.74;100852.31;101125;1318;109755;-76
2021/11/18 07:35:13;;;;;;;0.50;0.50;;;;;;;8.35;71.73;100858.16;101069;1321;138441;-76
2021/11/18 07:37:41;;;;;;;0.50;0.50;;;;;;;8.40;71.78;100859.34;101311;1318;95161;-75
2021/11/18 07:40:11;;;;;;;0.50;0.50;;;;;;;8.48;71.59;100854.86;101131;1318;108880;-75
2021/11/18 07:42:42;;;;;;;0.50;0.50;;;;;;;8.42;71.40;100853.66;100881;1321;138242;-75
2021/11/18 07:45:28;;;;;;;0.50;0.50;;;;;;;8.35;71.36;100858.67;101218;1318;95599;-77
2021/11/18 07:48:15;;;;;;;0.50;0.50;;;;;;;8.35;71.69;100858.68;101151;1318;139905;-76
2021/11/18 07:50:44;;;;;;;0.50;0.50;;;;;;;8.38;71.54;100861.66;100937;1320;109235;-76
2021/11/18 07:53:14;;;;;;;0.50;0.50;;;;;;;8.36;71.51;100864.16;101324;1321;139356;-76
2021/11/18 07:55:44;;;;;;;0.50;0.50;;;;;;;8.30;71.48;100860.14;101302;1322;95907;-74
2021/11/18 07:58:12;;;;;;;0.50;0.50;;;;;;;8.27;71.76;100866.71;101037;1319;95995;-75
2021/11/18 08:00:42;;;;;;;0.50;0.50;;;;;;;8.34;71.66;100871.42;100890;1321;138846;-76
2021/11/18 08:03:15;;;;;;;0.50;0.50;;;;;;;8.34;71.55;100870.90;101030;1322;137534;-76
2021/11/18 08:06:05;;;;;;;0.50;0.50;;;;;;;8.33;71.73;100873.38;101141;1318;138921;-77
2021/11/18 08:08:34;;;;;;;0.50;0.50;;;;;;;8.35;71.89;100871.43;101380;1321;95759;-77
2021/11/18 08:11:02;;;;;;;0.50;0.40;;;;;;;8.38;71.58;100877.94;101185;1318;108868;-76
2021/11/18 08:13:30;;;;;;;0.50;0.50;;;;;;;8.38;71.44;100883.95;101156;1318;138078;-76
2021/11/18 08:15:57;;;;;;;0.50;0.50;;;;;;;8.36;71.50;100879.02;101133;1319;95755;-76
2021/11/18 08:18:26;;;;;;;0.50;0.50;;;;;;;8.39;71.63;100880.41;101028;1318;139378;-76
2021/11/18 08:20:54;;;;;;;0.50;0.50;;;;;;;8.44;71.54;100882.31;100957;1321;107934;-76
2021/11/18 08:23:23;;;;;;;0.50;0.50;;;;;;;8.54;71.44;100890.39;101090;1318;139032;-74
2021/11/18 08:25:51;;;;;;;0.50;0.50;;;;;;;8.53;70.99;100891.81;101157;1319;95711;-76
2021/11/18 08:28:19;;;;;;;0.50;0.50;;;;;;;8.49;71.02;100891.48;101226;1318;95793;-76
2021/11/18 08:30:46;;;;;;;0.50;0.50;;;;;;;8.47;71.09;100893.10;100999;1321;139547;-77
2021/11/18 08:33:14;;;;;;;0.50;0.40;;;;;;;8.49;71.35;100896.98;101175;1319;109802;-77
2021/11/18 08:35:42;;;;;;;0.50;0.50;;;;;;;8.54;71.21;100900.47;101146;1318;139762;-76
2021/11/18 08:38:13;;;;;;;0.50;0.50;;;;;;;8.53;70.90;100901.38;100936;1321;95827;-76
2021/11/18 08:40:52;;;;;;;0.50;0.40;;;;;;;8.54;71.03;100905.61;101173;1318;107891;-76
2021/11/18 08:43:22;;;;;;;0.50;0.40;;;;;;;8.59;70.26;100903.96;100936;1322;139282;-77
2021/11/18 08:45:51;;;;;;;0.50;0.40;;;;;;;8.61;70.31;100906.77;101305;1318;95762;-77
2021/11/18 08:48:19;;;;;;;0.50;0.50;;;;;;;8.65;70.54;100914.16;100957;1318;138540;-76
2021/11/18 08:51:09;;;;;;;0.50;0.40;;;;;;;8.71;70.27;100916.58;100818;1321;107911;-77
2021/11/18 08:53:40;;;;;;;0.50;0.50;;;;;;;8.77;70.18;100913.34;100965;1320;139109;-77
2021/11/18 08:56:08;;;;;;;0.50;0.40;;;;;;;8.84;69.92;100912.20;101327;1318;96970;-76
2021/11/18 08:58:40;;;;;;;0.50;0.50;;;;;;;8.87;69.32;100916.77;101247;1318;95275;-76
2021/11/18 09:01:20;;;;;;;0.40;0.40;;;;;;;8.84;69.36;100915.55;101006;1321;138350;-77
2021/11/18 09:03:53;;;;;;;0.50;0.50;;;;;;;8.85;69.44;100911.84;101236;1318;108950;-76
2021/11/18 09:06:23;;;;;;;0.40;0.40;;;;;;;8.98;69.17;100913.83;101122;1318;138630;-77
2021/11/18 09:08:54;;;;;;;0.50;0.50;;;;;;;9.09;68.94;100908.91;101218;1318;95434;-76
2021/11/18 09:11:23;;;;;;;0.50;0.50;;;;;;;9.09;68.61;100906.61;100955;1316;138087;-75
2021/11/18 09:13:54;;;;;;;0.50;0.50;;;;;;;9.09;68.05;100901.99;101000;1321;110213;-75
2021/11/18 09:16:24;;;;;;;0.50;0.40;;;;;;;9.07;68.22;100908.77;100992;1319;95756;-76
2021/11/18 09:19:16;;;;;;;0.50;0.50;;;;;;;9.05;68.62;100907.36;100946;1318;138379;-76
2021/11/18 09:21:46;;;;;;;0.40;0.40;;;;;;;9.06;68.64;100910.71;100978;1321;109785;-75
2021/11/18 09:24:22;;;;;;;0.40;0.40;;;;;;;9.06;68.79;100909.48;101294;1319;138874;-76
2021/11/18 09:27:04;;;;;;;0.50;0.40;;;;;;;9.01;68.42;100912.71;101515;1318;95376;-77
2021/11/18 09:29:33;;;;;;;0.50;0.50;;;;;;;8.95;68.52;100917.58;101377;1318;138939;-75
2021/11/18 09:32:15;;;;;;;0.50;0.50;;;;;;;8.94;68.68;100919.00;101074;1319;108851;-76
2021/11/18 09:34:46;;;;;;;0.50;0.40;;;;;;;9.03;68.64;100917.12;100983;1321;109906;-76
2021/11/18 09:37:15;;;;;;;0.40;0.40;;;;;;;9.09;68.02;100915.82;101377;1319;139468;-75
2021/11/18 09:39:43;;;;;;;0.50;0.50;;;;;;;9.07;67.95;100916.55;101154;1325;95250;-77
2021/11/18 09:42:22;;;;;;;0.50;0.50;;;;;;;9.07;68.02;100910.89;101150;1318;138356;-76
2021/11/18 09:45:30;;;;;;;0.40;0.40;;;;;;;9.08;67.57;100912.98;101562;1318;108823;-76
2021/11/18 09:48:03;;;;;;;0.50;0.40;;;;;;;9.02;67.67;100906.67;100499;1324;138956;-77
2021/11/18 09:50:55;;;;;;;0.50;0.40;;;;;;;9.04;68.23;100904.18;100963;1321;95457;-76
2021/11/18 09:54:11;;;;;;;0.50;0.50;;;;;;;9.06;67.89;100909.30;101024;1320;138966;-76
2021/11/18 09:57:13;;;;;;;0.50;0.40;;;;;;;9.07;67.65;100905.75;100383;1319;108888;-76
2021/11/18 09:59:48;;;;;;;0.50;0.50;;;;;;;9.12;67.46;100903.56;100885;1320;139001;-77
2021/11/18 10:02:45;;;;;;;0.50;0.50;;;;;;;9.14;67.59;100900.16;101216;1318;96227;-76
2021/11/18 10:05:26;;;;;;;0.40;0.40;;;;;;;9.21;67.35;100893.70;101110;1318;139289;-75
2021/11/18 10:07:58;;;;;;;0.50;0.40;;;;;;;9.19;67.35;100901.34;100959;1320;108779;-77
2021/11/18 10:10:44;;;;;;;0.50;0.40;;;;;;;9.27;67.63;100894.50;101120;1318;95813;-75
2021/11/18 10:13:41;;;;;;;0.50;0.40;;;;;;;9.30;67.11;100892.16;100933;1321;138539;-75
2021/11/18 10:16:16;;;;;;;0.50;0.50;;;;;;;9.32;66.55;100896.73;101284;1318;108942;-76
2021/11/18 10:18:48;;;;;;;0.40;0.40;;;;;;;9.26;66.88;100887.06;101071;1321;137891;-77
2021/11/18 10:21:18;;;;;;;0.40;0.40;;;;;;;9.24;67.08;100885.52;101068;1321;95818;-76
2021/11/18 10:23:48;;;;;;;0.40;0.40;;;;;;;9.26;67.09;100892.92;101107;1318;138223;-74
2021/11/18 10:26:22;;;;;;;0.50;0.50;;;;;;;9.23;66.53;100897.58;101176;1318;108913;-77
2021/11/18 10:28:59;;;;;;;0.40;0.40;;;;;;;9.25;66.80;100894.36;101528;1318;110797;-75
2021/11/18 10:31:52;;;;;;;0.50;0.50;;;;;;;9.28;66.63;100905.66;101083;1319;138232;-75
2021/11/18 10:34:41;;;;;;;0.40;0.40;;;;;;;9.26;66.48;100911.88;101205;1318;95603;-76
2021/11/18 10:37:37;;;;;;;0.40;0.40;;;;;;;9.28;66.42;100909.55;101140;1318;137898;-75
2021/11/18 10:40:28;;;;;;;0.50;0.50;;;;;;;9.27;66.37;100903.20;101182;1318;109909;-76
2021/11/18 10:43:02;;;;;;;0.50;0.40;;;;;;;9.30;66.60;100906.35;101097;1319;140093;-74
2021/11/18 10:45:37;;;;;;;0.40;0.40;;;;;;;9.31;66.07;100902.95;101266;1318;95345;-77
2021/11/18 10:48:20;;;;;;;0.50;0.50;;;;;;;9.26;66.13;100895.05;101063;1318;138178;-77
2021/11/18 10:50:59;;;;;;;0.50;0.40;;;;;;;9.30;66.25;100893.59;101256;1318;110028;-76
2021/11/18 10:53:31;;;;;;;0.50;0.40;;;;;;;9.31;66.24;100888.26;101027;1318;138245;-76
2021/11/18 10:56:08;;;;;;;0.50;0.40;;;;;;;9.39;66.39;100882.30;101131;1322;95365;-77
2021/11/18 10:58:39;;;;;;;0.50;0.40;;;;;;;9.43;65.98;100877.46;101384;1318;108817;-76
2021/11/18 11:01:15;;;;;;;0.40;0.40;;;;;;;9.41;65.55;100878.20;101094;1318;137787;-76
2021/11/18 11:03:45;;;;;;;0.40;0.40;;;;;;;9.32;65.97;100879.91;101185;1318;97011;-77
2021/11/18 11:06:19;;;;;;;0.40;0.40;;;;;;;9.33;65.55;100887.52;100955;1320;138282;-77
2021/11/18 11:09:18;;;;;;;0.40;0.40;;;;;;;9.30;65.29;100898.54;101196;1318;108901;-76
2021/11/18 11:12:13;;;;;;;0.50;0.40;;;;;;;9.18;65.01;100899.58;101087;1318;137890;-77
2021/11/18 11:14:47;;;;;;;0.50;0.40;;;;;;;9.19;65.61;100891.27;101284;1318;96580;-76
2021/11/18 11:17:23;;;;;;;0.40;0.40;;;;;;;9.21;65.13;100888.58;101114;1321;140109;-76
2021/11/18 11:20:36;;;;;;;0.50;0.40;;;;;;;9.25;65.03;100883.73;101496;1318;107868;-77
2021/11/18 11:23:13;;;;;;;0.50;0.50;;;;;;;9.33;63.71;100887.34;100409;1326;108803;-76
2021/11/18 11:26:02;;;;;;;0.50;0.50;;;;;;;9.33;63.84;100894.42;100436;1326;138129;-76
2021/11/18 11:29:10;;;;;;;0.50;0.50;;;;;;;9.38;63.54;100890.11;100809;1322;95884;-76
2021/11/18 11:31:41;;;;;;;0.40;0.40;;;;;;;9.34;63.08;100891.23;101082;1320;139065;-77
2021/11/18 11:34:33;;;;;;;0.50;0.40;;;;;;;9.35;62.91;100892.27;101167;1320;109911;-76
2021/11/18 11:37:30;;;;;;;0.40;0.40;;;;;;;9.34;63.20;100891.23;101076;1318;139062;-77
2021/11/18 11:40:03;;;;;;;0.40;0.40;;;;;;;9.38;63.42;100889.93;101220;1318;95705;-77
2021/11/18 11:42:43;;;;;;;0.40;0.40;;;;;;;9.48;62.90;100887.67;101124;1318;138155;-77
2021/11/18 11:45:43;;;;;;;0.40;0.40;;;;;;;9.55;62.72;100888.63;101118;1321;108686;-76
2021/11/18 11:48:39;;;;;;;0.40;0.40;;;;;;;9.57;62.42;100887.20;101236;1318;137880;-75